If you wish to contribute or participate in the discussions about articles you are invited to join SKYbrary as a registered user

 Actions

Cabo Frio International Airport

From SKYbrary Wiki

SBCB
Airport
ICAO: SBCB – IATA: CFB
Summary
Name Cabo Frio International Airport
Region South America and Caribbean
Territory Brazil BR.gif
Location Cabo Frio, Rio de Janeiro
Serving Cabo Frio
Elevation 7.01 m
23 ft7.01 m
Coordinates 22° 55' 14.99" S, 42° 4' 17.00" W
Runways
Designator Length Width Surface ROPS
10/28 2550 m8,366.142 ft
45 m147.638 ft
ASP /


METAR
Observation SBCB 141600Z 11017KT CAVOK 29/19 Q1012
Station CABO FRIO
Date/Time 14 October 2019 16:00:00
Wind direction 110°
Wind speed 17 kts
Lowest cloud amount clouds and visibility OK
Temperature 29°C
Dew point 19°C
Humidity 54%
QNH 1012 hPa
Weather condition n/a

Cabo Frio International Airport is the airport serving Cabo Frio, Brazil.

Climatology

Tropical rainforest climate (Köppen climate classification Af)

Maps

Terrain

Loading map...

Airport Layout

Loading map...


Accidents & Serious Incidents at or in vicinity of SBCB

None on SKYbrary